Time;durP1;ratioP1;P1;durP2;ratioP2;P2;SDS_P1;SDS_P2;PMS_P1;PMS_P2;Temp;Humidity;BMP_temperature;BMP_pressure;BME280_temperature;BME280_humidity;BME280_pressure;Samples;Min_cycle;Max_cycle;Signal;HPM_P1;HPM_P2
2022/07/23 00:01:38;;;;;;;7.03;6.18;;;;;;;15.65;91.19;101155.06;4910397;29;20067;-86
2022/07/23 00:04:05;;;;;;;6.57;5.97;;;;;;;15.57;91.39;101157.03;4926752;29;20039;-85
2022/07/23 00:06:31;;;;;;;7.63;5.70;;;;;;;15.45;91.85;101146.72;4923823;29;20043;-82
2022/07/23 00:08:58;;;;;;;6.60;5.75;;;;;;;15.31;92.27;101145.25;4925494;29;20456;-85
2022/07/23 00:11:34;;;;;;;8.60;5.70;;;;;;;15.19;93.72;101151.66;4907386;29;20064;-83
2022/07/23 00:14:00;;;;;;;7.07;4.32;;;;;;;15.08;94.39;101152.78;4940672;29;20047;-84
2022/07/23 00:16:29;;;;;;;5.07;4.57;;;;;;;14.99;94.84;101149.41;4924861;29;20050;-84
2022/07/23 00:18:55;;;;;;;6.43;4.20;;;;;;;14.94;95.24;101156.56;4924855;29;20163;-84
2022/07/23 00:21:22;;;;;;;5.28;4.80;;;;;;;14.91;95.92;101158.38;4922591;29;20087;-82
2022/07/23 00:23:52;;;;;;;10.52;6.55;;;;;;;14.89;95.98;101159.25;4906492;29;20047;-83
2022/07/23 00:26:20;;;;;;;5.78;4.78;;;;;;;14.86;95.87;101156.69;4923618;29;20044;-84
2022/07/23 00:28:47;;;;;;;6.68;5.97;;;;;;;14.87;96.64;101166.34;4927759;29;20044;-85
2022/07/23 00:31:13;;;;;;;10.70;5.72;;;;;;;14.94;96.38;101164.47;4930770;29;20083;-85
2022/07/23 00:33:40;;;;;;;4.35;4.03;;;;;;;15.05;95.67;101158.97;4945132;29;20067;-88
2022/07/23 00:36:08;;;;;;;8.65;5.75;;;;;;;15.15;95.32;101155.25;4940034;29;20048;-86
2022/07/23 00:38:34;;;;;;;5.28;4.78;;;;;;;15.21;94.53;101144.59;4942720;29;20114;-84
2022/07/23 00:41:01;;;;;;;5.88;4.57;;;;;;;15.27;94.22;101140.09;4939341;29;20073;-83
2022/07/23 00:43:28;;;;;;;7.65;5.28;;;;;;;15.30;94.06;101143.50;4935447;29;20064;-83
2022/07/23 00:45:55;;;;;;;7.57;5.85;;;;;;;15.31;94.14;101149.66;4940031;29;20071;-86
2022/07/23 00:48:21;;;;;;;7.47;6.78;;;;;;;15.30;94.29;101155.84;4932626;29;20099;-83
2022/07/23 00:50:48;;;;;;;6.15;5.55;;;;;;;15.25;94.16;101147.16;4933167;29;20480;-82
2022/07/23 00:53:16;;;;;;;8.13;5.13;;;;;;;15.16;94.71;101148.19;4932839;29;20062;-86
2022/07/23 00:55:43;;;;;;;6.25;4.97;;;;;;;15.06;95.18;101152.81;4933268;29;20086;-84
2022/07/23 00:58:13;;;;;;;9.15;5.18;;;;;;;14.98;96.18;101152.94;4917988;29;20044;-87
2022/07/23 01:00:40;;;;;;;8.35;5.40;;;;;;;14.92;96.52;101146.94;4932553;29;20082;-83
2022/07/23 01:03:07;;;;;;;9.18;5.35;;;;;;;14.86;96.86;101147.91;4932769;29;20099;-83
2022/07/23 01:05:34;;;;;;;10.18;6.00;;;;;;;14.80;97.61;101153.31;4933851;29;20853;-85
2022/07/23 01:08:01;;;;;;;10.23;6.15;;;;;;;14.71;97.94;101149.91;4933383;29;20098;-85
2022/07/23 01:10:34;;;;;;;7.72;6.88;;;;;;;14.66;98.77;101157.03;4931432;29;20598;-84
2022/07/23 01:13:15;;;;;;;9.00;5.53;;;;;;;14.59;98.85;101152.75;4916626;29;20467;-83
2022/07/23 01:15:42;;;;;;;12.15;6.90;;;;;;;14.54;99.61;101159.88;4943830;29;20052;-83
2022/07/23 01:18:09;;;;;;;10.85;7.72;;;;;;;14.50;100.00;101153.78;4930925;29;20044;-84
2022/07/23 01:20:36;;;;;;;9.85;6.65;;;;;;;14.44;100.00;101151.25;4932106;29;20032;-83
2022/07/23 01:23:03;;;;;;;20.83;8.63;;;;;;;14.41;100.00;101139.91;4931022;29;20399;-83
2022/07/23 01:25:29;;;;;;;16.95;8.25;;;;;;;14.36;100.00;101140.84;4931484;29;20123;-83
2022/07/23 01:27:56;;;;;;;10.30;6.53;;;;;;;14.32;100.00;101130.41;4932645;29;20051;-83
2022/07/23 01:30:23;;;;;;;9.45;6.68;;;;;;;14.32;100.00;101135.66;4931518;29;20044;-81
2022/07/23 01:32:49;;;;;;;6.63;5.93;;;;;;;14.31;100.00;101128.66;4933226;29;20099;-88
2022/07/23 01:35:16;;;;;;;13.98;7.45;;;;;;;14.26;100.00;101133.97;4930944;29;20068;-83
2022/07/23 01:37:43;;;;;;;11.48;7.68;;;;;;;14.20;100.00;101132.31;4933154;29;20056;-84
2022/07/23 01:40:10;;;;;;;12.25;7.97;;;;;;;14.16;100.00;101133.28;4933289;29;20320;-81
2022/07/23 01:42:37;;;;;;;15.50;7.30;;;;;;;14.11;100.00;101136.88;4927329;29;20050;-82
2022/07/23 01:45:06;;;;;;;22.98;9.45;;;;;;;14.08;100.00;101143.06;4930966;29;20134;-83
2022/07/23 01:47:32;;;;;;;15.15;7.70;;;;;;;14.04;100.00;101147.50;4927038;29;20051;-83
2022/07/23 01:49:59;;;;;;;12.75;7.47;;;;;;;14.03;100.00;101142.28;4929210;29;20044;-83
2022/07/23 01:52:28;;;;;;;25.60;11.32;;;;;;;14.02;100.00;101146.66;4911456;29;20946;-83
2022/07/23 01:54:55;;;;;;;15.40;9.30;;;;;;;14.01;100.00;101141.41;4913075;29;20403;-83
2022/07/23 01:57:22;;;;;;;15.23;9.43;;;;;;;13.99;100.00;101135.31;4929553;29;20044;-83
2022/07/23 01:59:48;;;;;;;22.25;10.25;;;;;;;13.97;100.00;101135.31;4927598;29;20035;-83
2022/07/23 02:02:15;;;;;;;23.15;10.05;;;;;;;13.97;100.00;101130.06;4912627;29;20144;-85
2022/07/23 02:04:42;;;;;;;23.75;11.93;;;;;;;13.97;100.00;101143.22;4908845;29;20075;-84
2022/07/23 02:07:09;;;;;;;16.55;10.70;;;;;;;13.97;100.00;101143.22;4914634;29;20046;-83
2022/07/23 02:09:38;;;;;;;20.92;10.68;;;;;;;13.99;100.00;101143.22;4926119;29;20078;-85
2022/07/23 02:12:04;;;;;;;19.10;10.20;;;;;;;14.03;100.00;101143.13;4929975;29;20056;-88
2022/07/23 02:14:31;;;;;;;18.20;9.27;;;;;;;14.06;100.00;101129.91;4944179;29;20048;-87
2022/07/23 02:16:58;;;;;;;14.90;8.73;;;;;;;14.11;100.00;101131.63;4911793;29;20158;-87
2022/07/23 02:19:25;;;;;;;11.35;8.50;;;;;;;14.17;100.00;101127.13;4924669;29;20491;-85
2022/07/23 02:21:51;;;;;;;11.77;8.13;;;;;;;14.25;100.00;101123.47;4912135;29;20110;-84
2022/07/23 02:24:21;;;;;;;11.82;8.93;;;;;;;14.31;100.00;101120.75;4911549;29;20069;-86
2022/07/23 02:26:48;;;;;;;14.10;7.78;;;;;;;14.36;100.00;101118.91;4924777;29;20040;-83
2022/07/23 02:29:15;;;;;;;14.93;7.82;;;;;;;14.39;100.00;101121.47;4908280;29;20051;-83
2022/07/23 02:31:45;;;;;;;15.43;8.50;;;;;;;14.44;100.00;101126.69;4926986;29;20106;-83
2022/07/23 02:34:12;;;;;;;18.52;8.48;;;;;;;14.44;100.00;101122.25;4908116;29;20056;-83
2022/07/23 02:36:44;;;;;;;9.30;7.85;;;;;;;14.46;100.00;101132.81;4911890;29;20142;-83
2022/07/23 02:39:11;;;;;;;9.52;7.25;;;;;;;14.49;100.00;101130.97;4913621;29;20131;-86
2022/07/23 02:41:37;;;;;;;8.65;7.70;;;;;;;14.51;100.00;101130.94;4925532;29;20479;-84
2022/07/23 02:44:04;;;;;;;16.73;10.25;;;;;;;14.53;100.00;101124.72;4927507;29;20848;-83
2022/07/23 02:46:31;;;;;;;18.23;8.85;;;;;;;14.54;100.00;101120.34;4912223;29;20365;-86
2022/07/23 02:49:01;;;;;;;15.43;9.63;;;;;;;14.52;100.00;101115.13;4923900;29;20095;-83
2022/07/23 02:51:27;;;;;;;14.02;9.57;;;;;;;14.48;100.00;101126.56;4908545;29;20131;-82
2022/07/23 02:53:54;;;;;;;16.85;8.95;;;;;;;14.50;100.00;101129.22;4927768;29;20044;-87
2022/07/23 02:56:21;;;;;;;16.70;10.25;;;;;;;14.48;100.00;101123.09;4908752;29;20036;-86
2022/07/23 02:58:47;;;;;;;14.75;9.02;;;;;;;14.49;100.00;101116.94;4925244;29;20123;-86
2022/07/23 03:01:14;;;;;;;11.75;8.13;;;;;;;14.46;100.00;101112.59;4924528;29;20411;-83
2022/07/23 03:03:43;;;;;;;11.07;7.60;;;;;;;14.44;100.00;101108.25;4926769;29;20539;-83
2022/07/23 03:06:11;;;;;;;14.00;9.15;;;;;;;14.42;100.00;101100.38;4909845;29;20055;-83
2022/07/23 03:08:38;;;;;;;17.42;9.05;;;;;;;14.40;100.00;101110.06;4925433;29;20051;-83
2022/07/23 03:11:07;;;;;;;21.73;10.02;;;;;;;14.44;100.00;101105.59;4928611;29;20740;-88
2022/07/23 03:13:34;;;;;;;22.42;9.88;;;;;;;14.46;100.00;101109.09;4923573;29;20126;-85
2022/07/23 03:16:03;;;;;;;20.48;11.48;;;;;;;14.45;100.00;101100.31;4912332;29;20891;-84
2022/07/23 03:18:30;;;;;;;15.32;11.00;;;;;;;14.46;100.00;101088.88;4926819;29;20099;-84
2022/07/23 03:20:56;;;;;;;19.23;11.30;;;;;;;14.48;100.00;101089.69;4927174;29;20574;-84
2022/07/23 03:23:23;;;;;;;19.35;11.82;;;;;;;14.51;100.00;101091.41;4923609;29;20058;-87
2022/07/23 03:25:50;;;;;;;20.65;10.15;;;;;;;14.48;100.00;101078.31;4911700;29;20043;-84
2022/07/23 03:28:18;;;;;;;21.33;11.75;;;;;;;14.53;100.00;101077.31;4928470;29;20059;-85
2022/07/23 03:30:46;;;;;;;14.77;9.52;;;;;;;14.56;100.00;101068.47;4904906;29;20047;-85
2022/07/23 03:33:16;;;;;;;19.02;8.52;;;;;;;14.57;100.00;101070.22;4926568;29;20048;-86
2022/07/23 03:35:44;;;;;;;9.20;7.72;;;;;;;14.52;100.00;101062.44;4926746;29;20494;-86
2022/07/23 03:38:11;;;;;;;10.15;6.57;;;;;;;14.46;100.00;101061.69;4919199;29;20059;-86
2022/07/23 03:40:38;;;;;;;8.60;6.68;;;;;;;14.44;100.00;101066.09;4922798;29;20043;-83
2022/07/23 03:43:05;;;;;;;11.40;7.78;;;;;;;14.44;100.00;101069.59;4909589;29;20047;-88
2022/07/23 03:45:32;;;;;;;13.55;6.97;;;;;;;14.45;100.00;101078.38;4926588;29;20048;-83
2022/07/23 03:48:03;;;;;;;11.48;7.43;;;;;;;14.46;100.00;101088.03;4928836;29;20042;-85
2022/07/23 03:50:30;;;;;;;10.18;6.35;;;;;;;14.43;100.00;101088.94;4926316;29;20050;-84
2022/07/23 03:52:56;;;;;;;9.75;7.50;;;;;;;14.43;100.00;101094.22;4926665;29;20400;-82
2022/07/23 03:55:23;;;;;;;9.63;7.68;;;;;;;14.44;100.00;101103.81;4923162;29;20092;-83
2022/07/23 03:57:50;;;;;;;11.18;8.73;;;;;;;14.42;100.00;101121.44;4927535;29;20051;-90
2022/07/23 04:00:17;;;;;;;15.65;9.15;;;;;;;14.43;100.00;101122.31;4925736;29;20047;-84
2022/07/23 04:02:46;;;;;;;12.95;9.45;;;;;;;14.45;100.00;101129.28;4901762;29;20054;-83
2022/07/23 04:05:18;;;;;;;11.63;8.15;;;;;;;14.44;100.00;101124.91;4920630;29;20058;-82
2022/07/23 04:07:44;;;;;;;10.75;8.07;;;;;;;14.46;100.00;101111.72;4925846;29;20043;-83
2022/07/23 04:10:11;;;;;;;10.38;7.30;;;;;;;14.47;100.00;101109.06;4924067;29;20115;-84
2022/07/23 04:12:37;;;;;;;9.20;8.30;;;;;;;14.46;100.00;101109.09;4929239;29;20051;-82
2022/07/23 04:17:46;;;;;;;8.10;7.30;;;;;;;14.41;100.00;101109.16;4929384;29;20040;-83
2022/07/23 04:20:13;;;;;;;11.40;7.82;;;;;;;14.40;100.00;101110.06;4929120;29;20193;-87
2022/07/23 04:22:40;;;;;;;12.55;8.82;;;;;;;14.42;100.00;101102.13;4911982;29;20123;-82
2022/07/23 04:25:08;;;;;;;13.73;9.27;;;;;;;14.41;100.00;101111.78;4927118;29;20110;-83
2022/07/23 04:27:34;;;;;;;15.73;8.23;;;;;;;14.35;100.00;101136.50;4910583;29;20040;-83
2022/07/23 04:30:01;;;;;;;12.82;7.88;;;;;;;14.34;100.00;101133.84;4912410;29;20142;-83
2022/07/23 04:32:31;;;;;;;23.23;12.25;;;;;;;14.32;100.00;101133.03;4927651;29;20040;-85
2022/07/23 04:35:00;;;;;;;9.63;8.63;;;;;;;14.26;100.00;101127.84;4925335;29;20043;-85
2022/07/23 04:37:27;;;;;;;9.43;7.70;;;;;;;14.20;100.00;101127.06;4925533;29;20099;-82
2022/07/23 04:39:53;;;;;;;17.38;9.88;;;;;;;14.14;100.00;101124.53;4925829;29;20050;-83
2022/07/23 04:42:22;;;;;;;15.30;10.43;;;;;;;14.04;100.00;101123.81;4924935;29;20063;-85
2022/07/23 04:44:48;;;;;;;30.00;13.23;;;;;;;13.96;100.00;101123.06;4926384;29;20044;-84
2022/07/23 04:47:17;;;;;;;14.07;10.10;;;;;;;13.86;100.00;101124.97;4924778;29;20040;-81
2022/07/23 04:49:44;;;;;;;15.07;10.25;;;;;;;13.78;100.00;101118.97;4926468;29;20722;-89
2022/07/23 04:52:11;;;;;;;10.82;8.40;;;;;;;13.72;100.00;101124.31;4897425;29;20403;-83
2022/07/23 04:54:38;;;;;;;14.48;9.23;;;;;;;13.66;100.00;101127.00;4925870;29;20443;-84
2022/07/23 04:57:04;;;;;;;10.90;8.60;;;;;;;13.63;100.00;101127.91;4924745;29;20040;-88
2022/07/23 04:59:32;;;;;;;12.00;9.20;;;;;;;13.62;100.00;101130.59;4922982;29;20129;-84
2022/07/23 05:01:59;;;;;;;10.48;8.07;;;;;;;13.65;100.00;101133.16;4926802;29;20712;-82
2022/07/23 05:04:25;;;;;;;10.35;8.18;;;;;;;13.66;100.00;101134.91;4907239;29;20046;-86
2022/07/23 05:06:52;;;;;;;10.32;8.65;;;;;;;13.70;100.00;101134.84;4942642;29;20497;-85
2022/07/23 05:09:19;;;;;;;9.63;8.65;;;;;;;13.74;100.00;101140.94;4905909;29;20048;-85
2022/07/23 05:11:45;;;;;;;9.18;8.27;;;;;;;13.77;100.00;101132.16;4928925;29;20773;-82
2022/07/23 05:14:12;;;;;;;11.02;8.82;;;;;;;13.83;100.00;101132.03;4924289;29;20134;-85
2022/07/23 05:16:42;;;;;;;12.40;9.02;;;;;;;13.90;100.00;101133.69;4923569;29;20064;-84
2022/07/23 05:19:08;;;;;;;11.95;8.30;;;;;;;13.94;100.00;101118.72;4908443;29;20099;-85
2022/07/23 05:21:35;;;;;;;11.43;8.85;;;;;;;14.01;100.00;101123.00;4929519;29;20480;-84
2022/07/23 05:24:02;;;;;;;13.07;9.02;;;;;;;14.08;100.00;101114.13;4928556;29;20173;-84
2022/07/23 05:26:29;;;;;;;8.48;7.68;;;;;;;14.14;100.00;101127.16;4925426;29;20451;-88
2022/07/23 05:28:56;;;;;;;10.45;8.60;;;;;;;14.20;100.00;101126.19;4935644;29;20475;-83
2022/07/23 05:31:28;;;;;;;10.80;8.00;;;;;;;14.24;100.00;101127.88;4932832;29;20043;-83
2022/07/23 05:33:55;;;;;;;7.57;6.88;;;;;;;14.30;100.00;101138.31;4930745;29;20119;-85
2022/07/23 05:36:21;;;;;;;9.82;8.73;;;;;;;14.36;100.00;101134.72;4931594;29;20058;-83
2022/07/23 05:38:48;;;;;;;10.02;8.82;;;;;;;14.41;100.00;101119.69;4926278;29;20424;-86
2022/07/23 05:41:15;;;;;;;11.38;8.73;;;;;;;14.46;100.00;101122.25;4929833;29;20039;-82
2022/07/23 05:43:44;;;;;;;12.13;8.57;;;;;;;14.52;100.00;101119.50;4919072;29;20074;-82
2022/07/23 05:46:11;;;;;;;12.75;9.18;;;;;;;14.54;100.00;101121.22;4932947;29;20079;-83
2022/07/23 05:48:38;;;;;;;10.40;8.45;;;;;;;14.58;100.00;101127.31;4931628;29;20074;-86
2022/07/23 05:51:06;;;;;;;8.50;7.60;;;;;;;14.64;100.00;101129.88;4929213;29;20052;-86
2022/07/23 05:53:34;;;;;;;10.50;8.13;;;;;;;14.70;100.00;101128.88;4915448;29;20044;-84
2022/07/23 05:56:01;;;;;;;9.77;7.72;;;;;;;14.75;100.00;101134.06;4930730;29;20063;-87
2022/07/23 05:58:28;;;;;;;10.75;7.45;;;;;;;14.80;100.00;101132.22;4927328;29;20755;-84
2022/07/23 06:00:55;;;;;;;11.30;8.30;;;;;;;14.82;100.00;101139.19;4929944;29;20039;-85
2022/07/23 06:03:21;;;;;;;11.10;9.20;;;;;;;14.85;100.00;101139.13;4918399;29;20047;-84
2022/07/23 06:05:48;;;;;;;9.32;8.00;;;;;;;14.89;100.00;101148.72;4931057;29;20071;-85
2022/07/23 06:08:18;;;;;;;10.55;8.15;;;;;;;14.95;100.00;101147.72;4915022;29;20467;-84
2022/07/23 06:10:44;;;;;;;12.90;8.65;;;;;;;15.03;100.00;101153.72;4930064;29;20043;-84
2022/07/23 06:13:11;;;;;;;8.25;7.43;;;;;;;15.11;100.00;101152.69;4898499;29;20047;-87
2022/07/23 06:15:38;;;;;;;10.43;7.78;;;;;;;15.18;100.00;101149.06;4928169;29;20483;-85
2022/07/23 06:18:08;;;;;;;11.38;9.32;;;;;;;15.25;100.00;101160.34;4929170;29;20260;-85
2022/07/23 06:20:35;;;;;;;11.25;8.52;;;;;;;15.25;100.00;101150.66;4927193;29;20039;-85
2022/07/23 06:23:02;;;;;;;11.00;7.13;;;;;;;15.29;100.00;101146.19;4913654;29;20148;-87
2022/07/23 06:25:28;;;;;;;8.55;7.70;;;;;;;15.35;100.00;101138.16;4930031;29;20043;-84
2022/07/23 06:27:55;;;;;;;14.15;7.95;;;;;;;15.39;100.00;101139.81;4930527;29;20146;-83
2022/07/23 06:30:22;;;;;;;11.50;8.35;;;;;;;15.42;99.81;101139.75;4912954;29;20044;-90
2022/07/23 06:32:50;;;;;;;13.65;7.75;;;;;;;15.41;98.91;101140.66;4909807;29;20048;-82
2022/07/23 06:35:19;;;;;;;11.82;7.97;;;;;;;15.45;98.41;101142.34;4931066;29;20123;-86
2022/07/23 06:37:46;;;;;;;8.77;6.32;;;;;;;15.47;97.95;101143.16;4926867;29;20051;-84
2022/07/23 06:40:13;;;;;;;8.73;7.10;;;;;;;15.53;97.08;101143.03;4925981;29;20127;-87
2022/07/23 06:42:40;;;;;;;7.50;6.28;;;;;;;15.59;96.77;101143.78;4926412;29;20043;-86
2022/07/23 06:45:08;;;;;;;8.23;6.07;;;;;;;15.67;96.30;101155.03;4927917;29;20519;-86
2022/07/23 06:47:35;;;;;;;7.80;6.63;;;;;;;15.79;95.19;101156.56;4923589;29;20680;-85
2022/07/23 06:50:02;;;;;;;8.48;6.35;;;;;;;15.88;94.69;101156.38;4911888;29;20051;-87
2022/07/23 06:52:28;;;;;;;7.53;6.43;;;;;;;15.99;93.78;101156.13;4923064;29;20127;-85
2022/07/23 06:54:55;;;;;;;13.13;6.70;;;;;;;16.04;93.34;101151.59;4940064;29;20078;-88
2022/07/23 06:57:22;;;;;;;10.27;7.40;;;;;;;16.08;93.01;101155.06;4919681;29;20487;-84
2022/07/23 06:59:51;;;;;;;8.77;6.68;;;;;;;16.18;92.47;101162.72;4918870;29;20052;-85
2022/07/23 07:02:18;;;;;;;6.38;5.53;;;;;;;16.33;92.24;101161.44;4940850;29;20096;-88
2022/07/23 07:04:45;;;;;;;8.23;6.68;;;;;;;16.52;90.36;101161.88;4926928;29;20048;-85
2022/07/23 07:07:14;;;;;;;7.25;5.65;;;;;;;16.70;89.66;101165.81;4926711;29;20043;-84
2022/07/23 07:09:41;;;;;;;7.28;6.40;;;;;;;16.89;87.51;101162.66;4912460;29;20056;-82
2022/07/23 07:12:15;;;;;;;7.18;5.88;;;;;;;17.10;85.74;101169.16;4925004;29;20055;-83
2022/07/23 07:14:42;;;;;;;6.90;6.05;;;;;;;17.25;84.54;101164.34;4917476;29;20079;-81
2022/07/23 07:17:11;;;;;;;11.50;5.70;;;;;;;17.36;82.31;101154.31;4918313;29;20416;-89
2022/07/23 07:19:38;;;;;;;5.43;4.95;;;;;;;17.53;80.41;101159.13;4916355;29;20471;-83
2022/07/23 07:22:05;;;;;;;8.25;5.55;;;;;;;17.83;78.55;101165.28;4933586;29;20043;-86
2022/07/23 07:24:31;;;;;;;4.97;4.57;;;;;;;18.18;76.64;101167.75;4933148;29;20036;-89
2022/07/23 07:27:01;;;;;;;8.82;5.03;;;;;;;18.34;75.69;101171.63;4917235;29;20041;-86
2022/07/23 07:29:28;;;;;;;9.48;5.13;;;;;;;18.43;74.51;101174.88;4920547;29;20427;-84
2022/07/23 07:31:55;;;;;;;5.00;4.43;;;;;;;18.47;73.51;101184.47;4929650;29;20032;-85
2022/07/23 07:34:21;;;;;;;7.18;4.60;;;;;;;18.42;73.21;101181.97;4897483;29;20740;-83
2022/07/23 07:36:49;;;;;;;4.90;4.28;;;;;;;18.82;72.82;101180.59;4914160;29;20079;-83
2022/07/23 07:39:16;;;;;;;3.38;3.08;;;;;;;19.54;69.99;101173.59;4927815;29;20455;-84
2022/07/23 07:41:43;;;;;;;4.80;3.30;;;;;;;20.07;67.28;101172.44;4914564;29;20047;-87
2022/07/23 07:44:09;;;;;;;4.70;3.15;;;;;;;20.38;64.66;101178.31;4914373;29;20043;-83
2022/07/23 07:46:36;;;;;;;5.63;3.50;;;;;;;20.69;62.69;101185.88;4913685;29;20665;-84
2022/07/23 07:49:06;;;;;;;3.33;2.85;;;;;;;21.37;59.87;101182.91;4930211;29;20047;-89
2022/07/23 07:51:33;;;;;;;2.38;2.17;;;;;;;22.30;59.08;101179.38;4931890;29;20055;-90
2022/07/23 07:54:01;;;;;;;3.63;2.50;;;;;;;23.09;55.17;101183.38;4928833;29;20047;-85
2022/07/23 07:56:29;;;;;;;1.90;1.77;;;;;;;23.54;54.49;101180.16;4928987;29;20052;-87
2022/07/23 07:59:07;;;;;;;1.92;1.75;;;;;;;23.78;52.15;101185.94;4918302;29;20519;-87
2022/07/23 08:01:36;;;;;;;2.47;2.20;;;;;;;23.93;51.76;101184.22;4927750;29;20091;-85
2022/07/23 08:04:03;;;;;;;2.30;2.08;;;;;;;23.42;51.79;101187.88;4919679;29;20402;-86
2022/07/23 08:06:38;;;;;;;3.08;2.30;;;;;;;22.51;53.67;101189.94;4932255;29;20042;-85
2022/07/23 08:09:04;;;;;;;4.53;1.33;;;;;;;22.09;54.57;101199.97;4931496;29;20050;-93
2022/07/23 08:11:34;;;;;;;3.40;1.77;;;;;;;22.65;53.07;101194.59;4910704;29;20099;-83
2022/07/23 08:14:04;;;;;;;1.38;1.38;;;;;;;23.56;51.40;101192.47;4928601;29;20507;-84
2022/07/23 08:16:32;;;;;;;2.35;1.35;;;;;;;24.35;48.81;101198.75;4909941;29;20052;-86
2022/07/23 08:18:59;;;;;;;1.42;1.30;;;;;;;24.97;47.81;101187.09;4924837;29;20472;-85
2022/07/23 08:21:28;;;;;;;4.20;1.48;;;;;;;25.34;46.50;101194.66;4914523;29;20071;-83
2022/07/23 08:23:56;;;;;;;2.95;1.98;;;;;;;24.89;46.73;101208.13;4913445;29;20395;-85
2022/07/23 08:26:25;;;;;;;2.75;1.60;;;;;;;25.11;45.40;101207.69;4913381;29;20054;-85
2022/07/23 08:28:52;;;;;;;2.97;1.95;;;;;;;25.83;44.13;101196.06;4925242;29;20067;-82
2022/07/23 08:31:21;;;;;;;2.47;1.90;;;;;;;25.82;43.41;101199.72;4929075;29;20075;-85
2022/07/23 08:33:52;;;;;;;2.88;1.50;;;;;;;25.61;43.59;101207.31;4909650;29;20044;-86
2022/07/23 08:36:19;;;;;;;3.85;1.70;;;;;;;24.80;45.29;101206.88;4912207;29;20491;-85
2022/07/23 08:38:47;;;;;;;4.38;1.23;;;;;;;23.87;47.18;101209.50;4912891;29;20131;-87
2022/07/23 08:41:16;;;;;;;4.13;1.50;;;;;;;23.12;48.61;101217.06;4911299;29;20044;-85
2022/07/23 08:43:48;;;;;;;1.48;1.05;;;;;;;23.55;47.95;101204.09;4924041;29;20074;-85
2022/07/23 08:46:20;;;;;;;3.30;1.27;;;;;;;24.82;45.72;101214.78;4925699;29;20123;-82
2022/07/23 08:48:50;;;;;;;2.17;1.00;;;;;;;26.06;41.49;101210.69;4929044;29;20032;-85
2022/07/23 08:51:18;;;;;;;2.58;1.67;;;;;;;26.49;39.25;101194.41;4924236;29;20059;-88
2022/07/23 08:53:45;;;;;;;1.77;1.30;;;;;;;27.13;38.47;101203.50;4912886;29;20043;-84
2022/07/23 08:56:18;;;;;;;1.42;1.02;;;;;;;27.58;38.41;101206.63;4927080;29;20055;-88
2022/07/23 08:58:45;;;;;;;;;;;;;;;27.40;37.35;101208.78;4917787;29;20047;-85
2022/07/23 09:01:17;;;;;;;2.70;0.90;;;;;;;27.14;38.87;101208.78;4928599;29;19931;-86
2022/07/23 09:03:46;;;;;;;1.00;0.88;;;;;;;27.11;37.84;101211.69;4916694;29;20475;-85
2022/07/23 09:06:13;;;;;;;1.92;1.10;;;;;;;27.42;36.89;101206.88;4931052;29;20058;-87
2022/07/23 09:08:43;;;;;;;2.17;1.02;;;;;;;27.65;36.75;101212.41;4929631;29;20054;-89
2022/07/23 09:11:13;;;;;;;2.30;1.33;;;;;;;27.33;36.87;101207.50;4928720;29;20043;-87
2022/07/23 09:13:52;;;;;;;2.72;1.33;;;;;;;27.06;37.33;101208.47;4927996;29;20044;-88
2022/07/23 09:16:34;;;;;;;3.92;1.90;;;;;;;26.21;38.40;101209.66;4929702;29;20039;-84
2022/07/23 09:19:07;;;;;;;5.25;1.95;;;;;;;25.19;40.58;101218.78;4946903;29;20063;-87
2022/07/23 09:21:39;;;;;;;4.22;1.27;;;;;;;24.34;42.59;101225.59;4930782;29;20067;-87
2022/07/23 09:24:15;;;;;;;3.03;1.35;;;;;;;23.60;44.24;101220.75;4936294;29;20043;-86
2022/07/23 09:26:44;;;;;;;2.20;1.25;;;;;;;23.83;44.24;101228.44;4929293;29;20106;-85
2022/07/23 09:29:28;;;;;;;1.92;1.15;;;;;;;25.06;41.87;101217.81;4932082;29;20134;-86
2022/07/23 09:31:59;;;;;;;;;;;;;;;26.28;39.49;101211.94;4935432;29;20048;-89
2022/07/23 09:34:35;;;;;;;4.28;1.02;;;;;;;26.33;38.96;101216.03;4931559;29;20580;-84
2022/07/23 09:37:14;;;;;;;3.25;1.80;;;;;;;26.94;37.74;101217.41;4901265;29;20051;-87
2022/07/23 09:39:42;;;;;;;1.92;1.67;;;;;;;27.46;36.81;101197.59;4910161;29;20055;-87
2022/07/23 09:42:28;;;;;;;1.73;1.20;;;;;;;27.66;36.35;101208.75;4910988;29;20058;-84
2022/07/23 09:44:57;;;;;;;1.27;1.15;;;;;;;28.66;35.05;101204.03;4914962;29;20051;-85
2022/07/23 09:47:27;;;;;;;1.10;1.00;;;;;;;28.68;35.17;101212.88;4926587;29;20054;-89
2022/07/23 09:50:05;;;;;;;1.17;0.95;;;;;;;28.16;35.60;101203.31;4917421;29;20051;-89
2022/07/23 09:52:43;;;;;;;2.20;1.08;;;;;;;26.78;36.36;101214.88;4931651;29;20472;-86
2022/07/23 09:55:12;;;;;;;3.50;1.25;;;;;;;25.95;38.44;101207.81;4931012;29;20036;-85
2022/07/23 09:57:43;;;;;;;2.17;1.40;;;;;;;26.43;37.18;101205.56;4928184;29;20143;-88
2022/07/23 10:00:11;;;;;;;1.90;1.30;;;;;;;27.07;37.23;101208.34;4931013;29;20058;-84
2022/07/23 10:02:48;;;;;;;3.05;1.42;;;;;;;27.23;36.55;101218.03;4932874;29;20055;-86
2022/07/23 10:05:15;;;;;;;2.20;1.02;;;;;;;26.44;37.96;101211.78;4931589;29;20048;-86
2022/07/23 10:07:43;;;;;;;1.90;0.93;;;;;;;25.54;38.94;101215.75;4930302;29;20082;-86
2022/07/23 10:10:12;;;;;;;4.25;1.52;;;;;;;25.14;39.01;101214.66;4916253;29;20052;-86
2022/07/23 10:15:29;;;;;;;1.40;1.00;;;;;;;26.65;36.39;101206.78;4930113;29;20746;-85
2022/07/23 10:17:56;;;;;;;1.70;0.73;;;;;;;26.55;36.66;101206.56;4916320;29;21044;-86
2022/07/23 10:20:23;;;;;;;0.82;0.65;;;;;;;25.91;37.62;101207.16;4915613;29;20542;-87
2022/07/23 10:23:33;;;;;;;3.28;1.33;;;;;;;25.32;38.67;101213.53;4946999;29;20593;-85
2022/07/23 10:26:13;;;;;;;3.40;1.40;;;;;;;24.31;40.84;101223.09;4932448;29;20048;-86
2022/07/23 10:28:56;;;;;;;2.75;1.35;;;;;;;23.77;41.86;101219.81;4913549;29;20044;-84
2022/07/23 10:31:56;;;;;;;;;;;;;;;24.08;42.38;101217.28;4930813;29;20040;-85
2022/07/23 10:34:42;;;;;;;1.10;0.98;;;;;;;26.43;37.89;101210.94;4930489;29;19989;-84
2022/07/23 10:37:48;;;;;;;1.75;1.08;;;;;;;27.32;36.52;101208.47;4939973;29;20131;-90
2022/07/23 10:40:22;;;;;;;2.40;1.27;;;;;;;29.18;33.95;101209.88;4946146;29;20052;-85
2022/07/23 10:42:53;;;;;;;1.92;1.10;;;;;;;30.62;31.38;101203.59;4943106;29;20038;-86
2022/07/23 10:45:34;;;;;;;4.70;1.17;;;;;;;32.05;29.29;101210.09;4949219;29;20039;-89
2022/07/23 10:48:26;;;;;;;2.58;0.82;;;;;;;32.95;26.79;101216.22;4912251;29;20099;-90
2022/07/23 10:51:14;;;;;;;1.25;1.00;;;;;;;33.73;25.61;101217.78;4934488;29;20054;-83
2022/07/23 10:53:53;;;;;;;0.82;0.60;;;;;;;33.83;25.47;101206.88;4914932;29;20099;-88
2022/07/23 10:56:57;;;;;;;2.05;0.80;;;;;;;34.24;25.38;101210.84;4927996;29;20044;-86
2022/07/23 10:59:29;;;;;;;1.30;0.70;;;;;;;33.77;25.80;101206.44;4931888;29;21274;-86
2022/07/23 11:02:25;;;;;;;1.38;0.68;;;;;;;31.43;27.72;101202.94;4933747;29;20044;-85
2022/07/23 11:04:54;;;;;;;2.30;0.90;;;;;;;31.57;28.37;101209.81;4949571;29;20062;-85
2022/07/23 11:07:21;;;;;;;2.70;0.85;;;;;;;33.05;26.65;101217.06;4920559;29;20044;-87
2022/07/23 11:09:48;;;;;;;1.33;0.80;;;;;;;34.05;25.45;101208.28;4916767;29;20127;-90
2022/07/23 11:12:15;;;;;;;1.08;0.90;;;;;;;34.05;25.07;101202.84;4917566;29;20059;-86
2022/07/23 11:15:02;;;;;;;0.95;0.70;;;;;;;32.41;26.28;101211.28;4928840;29;20143;-86
2022/07/23 11:17:30;;;;;;;2.92;0.80;;;;;;;31.30;28.05;101213.13;4930378;29;20039;-90
2022/07/23 11:20:15;;;;;;;0.60;0.60;;;;;;;29.40;29.80;101216.31;4913200;29;20051;-85
2022/07/23 11:22:53;;;;;;;1.73;0.63;;;;;;;29.17;30.42;101207.31;4932083;29;20268;-83
2022/07/23 11:25:23;;;;;;;0.77;0.73;;;;;;;30.56;29.12;101200.56;4928609;29;20462;-84
2022/07/23 11:27:54;;;;;;;1.90;0.70;;;;;;;32.31;27.04;101200.44;4931259;29;20047;-84
2022/07/23 11:30:30;;;;;;;1.87;0.63;;;;;;;33.19;25.27;101198.56;4930231;29;20079;-86
2022/07/23 11:33:11;;;;;;;1.48;0.60;;;;;;;33.47;24.63;101197.63;4944005;29;20047;-86
2022/07/23 11:35:49;;;;;;;0.40;0.40;;;;;;;34.10;23.93;101190.50;4938515;29;20048;-88